sensor_id;sensor_type;location;lat;lon;timestamp;P1;durP1;ratioP1;P2;durP2;ratioP2
62927;SDS011;51070;52.236;-0.892;2022-12-01T00:02:01;18.30;;;11.90;;
62927;SDS011;51070;52.236;-0.892;2022-12-01T00:04:26;16.60;;;10.70;;
62927;SDS011;51070;52.236;-0.892;2022-12-01T00:06:51;19.30;;;12.10;;
62927;SDS011;51070;52.236;-0.892;2022-12-01T00:09:17;20.30;;;12.50;;
62927;SDS011;51070;52.236;-0.892;2022-12-01T00:12:01;16.30;;;11.90;;
62927;SDS011;51070;52.236;-0.892;2022-12-01T00:14:26;15.40;;;11.20;;
62927;SDS011;51070;52.236;-0.892;2022-12-01T00:16:51;20.80;;;11.70;;
62927;SDS011;51070;52.236;-0.892;2022-12-01T00:19:17;17.90;;;12.40;;
62927;SDS011;51070;52.236;-0.892;2022-12-01T00:21:42;17.10;;;10.80;;
62927;SDS011;51070;52.236;-0.892;2022-12-01T00:24:08;16.80;;;10.40;;
62927;SDS011;51070;52.236;-0.892;2022-12-01T00:26:36;16.10;;;11.20;;
62927;SDS011;51070;52.236;-0.892;2022-12-01T00:29:02;15.60;;;9.90;;
62927;SDS011;51070;52.236;-0.892;2022-12-01T00:31:27;16.10;;;11.20;;
62927;SDS011;51070;52.236;-0.892;2022-12-01T00:33:53;15.70;;;9.60;;
62927;SDS011;51070;52.236;-0.892;2022-12-01T00:36:19;16.00;;;10.50;;
62927;SDS011;51070;52.236;-0.892;2022-12-01T00:38:45;22.90;;;11.60;;
62927;SDS011;51070;52.236;-0.892;2022-12-01T00:41:10;21.00;;;11.70;;
62927;SDS011;51070;52.236;-0.892;2022-12-01T00:43:36;15.10;;;10.50;;
62927;SDS011;51070;52.236;-0.892;2022-12-01T00:46:02;15.80;;;10.50;;
62927;SDS011;51070;52.236;-0.892;2022-12-01T00:48:27;17.10;;;11.10;;
62927;SDS011;51070;52.236;-0.892;2022-12-01T00:50:53;18.40;;;11.80;;
62927;SDS011;51070;52.236;-0.892;2022-12-01T00:53:19;19.10;;;11.50;;
62927;SDS011;51070;52.236;-0.892;2022-12-01T00:55:45;14.50;;;10.70;;
62927;SDS011;51070;52.236;-0.892;2022-12-01T00:58:11;17.40;;;10.60;;
62927;SDS011;51070;52.236;-0.892;2022-12-01T01:00:36;15.80;;;10.70;;
62927;SDS011;51070;52.236;-0.892;2022-12-01T01:03:03;19.30;;;11.70;;
62927;SDS011;51070;52.236;-0.892;2022-12-01T01:05:35;19.00;;;11.00;;
62927;SDS011;51070;52.236;-0.892;2022-12-01T01:08:05;19.70;;;12.10;;
62927;SDS011;51070;52.236;-0.892;2022-12-01T01:10:31;29.00;;;17.00;;
62927;SDS011;51070;52.236;-0.892;2022-12-01T01:12:56;18.40;;;12.80;;
62927;SDS011;51070;52.236;-0.892;2022-12-01T01:15:22;25.90;;;13.80;;
62927;SDS011;51070;52.236;-0.892;2022-12-01T01:17:47;25.00;;;13.60;;
62927;SDS011;51070;52.236;-0.892;2022-12-01T01:20:12;18.00;;;11.90;;
62927;SDS011;51070;52.236;-0.892;2022-12-01T01:22:38;22.10;;;13.10;;
62927;SDS011;51070;52.236;-0.892;2022-12-01T01:25:03;20.90;;;13.80;;
62927;SDS011;51070;52.236;-0.892;2022-12-01T01:27:29;19.10;;;12.10;;
62927;SDS011;51070;52.236;-0.892;2022-12-01T01:29:54;20.10;;;12.80;;
62927;SDS011;51070;52.236;-0.892;2022-12-01T01:32:20;19.20;;;12.20;;
62927;SDS011;51070;52.236;-0.892;2022-12-01T01:34:46;18.80;;;11.80;;
62927;SDS011;51070;52.236;-0.892;2022-12-01T01:37:11;21.10;;;12.30;;
62927;SDS011;51070;52.236;-0.892;2022-12-01T01:39:36;18.80;;;11.50;;
62927;SDS011;51070;52.236;-0.892;2022-12-01T01:42:02;20.90;;;11.60;;
62927;SDS011;51070;52.236;-0.892;2022-12-01T01:47:18;19.60;;;12.80;;
62927;SDS011;51070;52.236;-0.892;2022-12-01T01:49:49;19.60;;;12.70;;
62927;SDS011;51070;52.236;-0.892;2022-12-01T01:52:15;19.50;;;12.40;;
62927;SDS011;51070;52.236;-0.892;2022-12-01T01:54:43;18.50;;;12.40;;
62927;SDS011;51070;52.236;-0.892;2022-12-01T01:57:12;17.50;;;11.60;;
62927;SDS011;51070;52.236;-0.892;2022-12-01T01:59:44;20.30;;;11.90;;
62927;SDS011;51070;52.236;-0.892;2022-12-01T02:02:14;15.20;;;10.80;;
62927;SDS011;51070;52.236;-0.892;2022-12-01T02:04:40;24.40;;;10.90;;
62927;SDS011;51070;52.236;-0.892;2022-12-01T02:07:09;18.60;;;11.60;;
62927;SDS011;51070;52.236;-0.892;2022-12-01T02:12:07;25.10;;;13.80;;
62927;SDS011;51070;52.236;-0.892;2022-12-01T02:22:52;34.10;;;23.10;;
62927;SDS011;51070;52.236;-0.892;2022-12-01T02:25:47;26.10;;;19.70;;
62927;SDS011;51070;52.236;-0.892;2022-12-01T02:43:53;21.10;;;14.00;;
62927;SDS011;51070;52.236;-0.892;2022-12-01T02:46:28;20.80;;;13.60;;
62927;SDS011;51070;52.236;-0.892;2022-12-01T02:49:01;21.40;;;13.60;;
62927;SDS011;51070;52.236;-0.892;2022-12-01T02:51:32;18.80;;;12.90;;
62927;SDS011;51070;52.236;-0.892;2022-12-01T02:54:00;19.90;;;13.30;;
62927;SDS011;51070;52.236;-0.892;2022-12-01T02:56:27;18.50;;;13.20;;
62927;SDS011;51070;52.236;-0.892;2022-12-01T02:58:53;24.30;;;12.80;;
62927;SDS011;51070;52.236;-0.892;2022-12-01T03:12:20;23.00;;;13.90;;
62927;SDS011;51070;52.236;-0.892;2022-12-01T03:15:05;23.60;;;12.80;;
62927;SDS011;51070;52.236;-0.892;2022-12-01T03:17:49;20.20;;;13.00;;
62927;SDS011;51070;52.236;-0.892;2022-12-01T03:20:23;19.20;;;12.70;;
62927;SDS011;51070;52.236;-0.892;2022-12-01T03:22:59;24.00;;;12.60;;
62927;SDS011;51070;52.236;-0.892;2022-12-01T03:25:32;19.00;;;11.90;;
62927;SDS011;51070;52.236;-0.892;2022-12-01T03:27:59;18.20;;;12.10;;
62927;SDS011;51070;52.236;-0.892;2022-12-01T03:30:28;20.10;;;13.00;;
62927;SDS011;51070;52.236;-0.892;2022-12-01T03:33:02;19.40;;;12.50;;
62927;SDS011;51070;52.236;-0.892;2022-12-01T03:35:41;20.50;;;13.10;;
62927;SDS011;51070;52.236;-0.892;2022-12-01T03:38:14;20.80;;;13.40;;
62927;SDS011;51070;52.236;-0.892;2022-12-01T03:40:45;19.00;;;13.10;;
62927;SDS011;51070;52.236;-0.892;2022-12-01T03:43:17;23.30;;;12.90;;
62927;SDS011;51070;52.236;-0.892;2022-12-01T03:48:21;20.30;;;13.00;;
62927;SDS011;51070;52.236;-0.892;2022-12-01T03:50:54;18.90;;;11.80;;
62927;SDS011;51070;52.236;-0.892;2022-12-01T03:53:31;18.80;;;11.90;;
62927;SDS011;51070;52.236;-0.892;2022-12-01T03:58:37;28.50;;;16.30;;
62927;SDS011;51070;52.236;-0.892;2022-12-01T04:01:06;24.50;;;15.00;;
62927;SDS011;51070;52.236;-0.892;2022-12-01T04:03:33;25.70;;;13.90;;
62927;SDS011;51070;52.236;-0.892;2022-12-01T04:05:58;27.60;;;16.70;;
62927;SDS011;51070;52.236;-0.892;2022-12-01T04:08:25;27.40;;;16.60;;
62927;SDS011;51070;52.236;-0.892;2022-12-01T04:10:51;25.80;;;16.40;;
62927;SDS011;51070;52.236;-0.892;2022-12-01T04:13:16;24.50;;;15.80;;
62927;SDS011;51070;52.236;-0.892;2022-12-01T04:15:49;24.20;;;14.90;;
62927;SDS011;51070;52.236;-0.892;2022-12-01T04:18:15;25.50;;;14.40;;
62927;SDS011;51070;52.236;-0.892;2022-12-01T04:20:41;22.90;;;14.20;;
62927;SDS011;51070;52.236;-0.892;2022-12-01T04:23:07;23.40;;;14.00;;
62927;SDS011;51070;52.236;-0.892;2022-12-01T04:25:33;24.70;;;14.20;;
62927;SDS011;51070;52.236;-0.892;2022-12-01T04:27:59;23.20;;;13.00;;
62927;SDS011;51070;52.236;-0.892;2022-12-01T04:30:24;19.80;;;12.60;;
62927;SDS011;51070;52.236;-0.892;2022-12-01T04:32:50;22.60;;;14.00;;
62927;SDS011;51070;52.236;-0.892;2022-12-01T04:35:15;25.90;;;14.70;;
62927;SDS011;51070;52.236;-0.892;2022-12-01T04:37:41;27.90;;;15.10;;
62927;SDS011;51070;52.236;-0.892;2022-12-01T04:40:06;25.30;;;13.60;;
62927;SDS011;51070;52.236;-0.892;2022-12-01T04:42:32;20.70;;;13.00;;
62927;SDS011;51070;52.236;-0.892;2022-12-01T04:44:58;17.60;;;10.70;;
62927;SDS011;51070;52.236;-0.892;2022-12-01T04:47:23;18.00;;;11.80;;
62927;SDS011;51070;52.236;-0.892;2022-12-01T04:49:49;20.00;;;11.70;;
62927;SDS011;51070;52.236;-0.892;2022-12-01T04:52:14;21.10;;;12.40;;
62927;SDS011;51070;52.236;-0.892;2022-12-01T04:54:39;20.10;;;13.50;;
62927;SDS011;51070;52.236;-0.892;2022-12-01T04:57:05;20.70;;;13.00;;
62927;SDS011;51070;52.236;-0.892;2022-12-01T04:59:30;22.40;;;13.20;;
62927;SDS011;51070;52.236;-0.892;2022-12-01T05:01:55;24.40;;;15.20;;
62927;SDS011;51070;52.236;-0.892;2022-12-01T05:04:21;22.80;;;14.30;;
62927;SDS011;51070;52.236;-0.892;2022-12-01T05:06:46;18.50;;;10.80;;
62927;SDS011;51070;52.236;-0.892;2022-12-01T05:09:12;18.70;;;11.90;;
62927;SDS011;51070;52.236;-0.892;2022-12-01T05:11:39;16.50;;;10.50;;
62927;SDS011;51070;52.236;-0.892;2022-12-01T05:14:05;18.30;;;12.40;;
62927;SDS011;51070;52.236;-0.892;2022-12-01T05:16:31;15.30;;;9.70;;
62927;SDS011;51070;52.236;-0.892;2022-12-01T05:19:01;14.10;;;9.20;;
62927;SDS011;51070;52.236;-0.892;2022-12-01T05:21:47;16.90;;;10.60;;
62927;SDS011;51070;52.236;-0.892;2022-12-01T05:24:14;17.80;;;9.70;;
62927;SDS011;51070;52.236;-0.892;2022-12-01T05:26:41;17.60;;;10.30;;
62927;SDS011;51070;52.236;-0.892;2022-12-01T05:29:08;20.20;;;10.90;;
62927;SDS011;51070;52.236;-0.892;2022-12-01T05:31:34;16.80;;;10.80;;
62927;SDS011;51070;52.236;-0.892;2022-12-01T05:33:59;18.50;;;10.80;;
62927;SDS011;51070;52.236;-0.892;2022-12-01T05:36:25;18.70;;;11.90;;
62927;SDS011;51070;52.236;-0.892;2022-12-01T05:38:51;16.10;;;11.10;;
62927;SDS011;51070;52.236;-0.892;2022-12-01T05:41:16;18.50;;;12.70;;
62927;SDS011;51070;52.236;-0.892;2022-12-01T05:43:42;21.10;;;11.30;;
62927;SDS011;51070;52.236;-0.892;2022-12-01T05:46:07;18.50;;;10.70;;
62927;SDS011;51070;52.236;-0.892;2022-12-01T05:48:32;21.50;;;10.30;;
62927;SDS011;51070;52.236;-0.892;2022-12-01T05:50:58;18.00;;;10.20;;
62927;SDS011;51070;52.236;-0.892;2022-12-01T05:53:23;20.90;;;11.70;;
62927;SDS011;51070;52.236;-0.892;2022-12-01T05:55:52;15.00;;;9.10;;
62927;SDS011;51070;52.236;-0.892;2022-12-01T05:58:18;15.60;;;9.20;;
62927;SDS011;51070;52.236;-0.892;2022-12-01T06:00:44;16.80;;;10.90;;
62927;SDS011;51070;52.236;-0.892;2022-12-01T06:03:09;18.80;;;10.30;;
62927;SDS011;51070;52.236;-0.892;2022-12-01T06:05:35;18.60;;;10.60;;
62927;SDS011;51070;52.236;-0.892;2022-12-01T06:08:00;15.50;;;9.70;;
62927;SDS011;51070;52.236;-0.892;2022-12-01T06:10:25;14.10;;;9.30;;
62927;SDS011;51070;52.236;-0.892;2022-12-01T06:12:51;19.10;;;9.30;;
62927;SDS011;51070;52.236;-0.892;2022-12-01T06:15:16;15.90;;;9.50;;
62927;SDS011;51070;52.236;-0.892;2022-12-01T06:17:42;16.20;;;10.60;;
62927;SDS011;51070;52.236;-0.892;2022-12-01T06:20:08;14.60;;;9.40;;
62927;SDS011;51070;52.236;-0.892;2022-12-01T06:22:34;17.30;;;9.80;;
62927;SDS011;51070;52.236;-0.892;2022-12-01T06:24:59;14.70;;;9.30;;
62927;SDS011;51070;52.236;-0.892;2022-12-01T06:27:24;20.70;;;10.20;;
62927;SDS011;51070;52.236;-0.892;2022-12-01T06:29:50;18.60;;;11.40;;
62927;SDS011;51070;52.236;-0.892;2022-12-01T06:32:15;25.50;;;12.80;;
62927;SDS011;51070;52.236;-0.892;2022-12-01T06:34:41;18.00;;;11.00;;
62927;SDS011;51070;52.236;-0.892;2022-12-01T06:37:07;21.60;;;11.20;;
62927;SDS011;51070;52.236;-0.892;2022-12-01T06:39:33;18.00;;;10.50;;
62927;SDS011;51070;52.236;-0.892;2022-12-01T06:41:59;19.90;;;11.60;;
62927;SDS011;51070;52.236;-0.892;2022-12-01T06:44:24;20.30;;;10.80;;
62927;SDS011;51070;52.236;-0.892;2022-12-01T06:46:49;15.70;;;9.30;;
62927;SDS011;51070;52.236;-0.892;2022-12-01T06:49:17;18.50;;;10.50;;
62927;SDS011;51070;52.236;-0.892;2022-12-01T06:51:43;16.40;;;10.10;;
62927;SDS011;51070;52.236;-0.892;2022-12-01T06:54:12;18.10;;;9.90;;
62927;SDS011;51070;52.236;-0.892;2022-12-01T06:56:38;18.30;;;11.10;;
62927;SDS011;51070;52.236;-0.892;2022-12-01T06:59:04;18.10;;;11.30;;
62927;SDS011;51070;52.236;-0.892;2022-12-01T07:01:30;18.20;;;11.30;;
62927;SDS011;51070;52.236;-0.892;2022-12-01T07:03:55;16.00;;;9.40;;
62927;SDS011;51070;52.236;-0.892;2022-12-01T07:06:21;17.70;;;10.30;;
62927;SDS011;51070;52.236;-0.892;2022-12-01T07:08:47;15.50;;;9.60;;
62927;SDS011;51070;52.236;-0.892;2022-12-01T07:11:13;14.60;;;9.10;;
62927;SDS011;51070;52.236;-0.892;2022-12-01T07:13:40;14.80;;;9.70;;
62927;SDS011;51070;52.236;-0.892;2022-12-01T07:16:06;15.20;;;8.80;;
62927;SDS011;51070;52.236;-0.892;2022-12-01T07:18:33;16.20;;;9.40;;
62927;SDS011;51070;52.236;-0.892;2022-12-01T07:21:01;13.90;;;8.00;;
62927;SDS011;51070;52.236;-0.892;2022-12-01T07:23:29;19.40;;;10.40;;
62927;SDS011;51070;52.236;-0.892;2022-12-01T07:26:05;18.40;;;10.10;;
62927;SDS011;51070;52.236;-0.892;2022-12-01T07:28:32;16.80;;;9.20;;
62927;SDS011;51070;52.236;-0.892;2022-12-01T07:31:02;16.70;;;8.80;;
62927;SDS011;51070;52.236;-0.892;2022-12-01T07:33:28;16.30;;;9.70;;
62927;SDS011;51070;52.236;-0.892;2022-12-01T07:35:53;17.20;;;9.90;;
62927;SDS011;51070;52.236;-0.892;2022-12-01T07:38:19;19.10;;;9.90;;
62927;SDS011;51070;52.236;-0.892;2022-12-01T07:40:44;17.20;;;10.20;;
62927;SDS011;51070;52.236;-0.892;2022-12-01T07:43:09;16.30;;;9.10;;
62927;SDS011;51070;52.236;-0.892;2022-12-01T07:45:35;12.40;;;6.50;;
62927;SDS011;51070;52.236;-0.892;2022-12-01T07:48:00;14.70;;;7.20;;
62927;SDS011;51070;52.236;-0.892;2022-12-01T07:50:26;21.80;;;9.70;;
62927;SDS011;51070;52.236;-0.892;2022-12-01T07:52:51;18.70;;;8.90;;
62927;SDS011;51070;52.236;-0.892;2022-12-01T07:55:16;22.80;;;9.30;;
62927;SDS011;51070;52.236;-0.892;2022-12-01T07:57:42;19.30;;;10.70;;
62927;SDS011;51070;52.236;-0.892;2022-12-01T08:00:07;14.50;;;8.60;;
62927;SDS011;51070;52.236;-0.892;2022-12-01T08:02:33;18.60;;;9.30;;
62927;SDS011;51070;52.236;-0.892;2022-12-01T08:04:59;17.40;;;8.00;;
62927;SDS011;51070;52.236;-0.892;2022-12-01T08:07:24;16.40;;;8.30;;
62927;SDS011;51070;52.236;-0.892;2022-12-01T08:09:50;13.80;;;7.60;;
62927;SDS011;51070;52.236;-0.892;2022-12-01T08:12:15;14.30;;;8.00;;
62927;SDS011;51070;52.236;-0.892;2022-12-01T08:14:40;16.70;;;8.00;;
62927;SDS011;51070;52.236;-0.892;2022-12-01T08:17:06;16.70;;;8.80;;
62927;SDS011;51070;52.236;-0.892;2022-12-01T08:19:32;14.50;;;7.70;;
62927;SDS011;51070;52.236;-0.892;2022-12-01T08:21:57;14.20;;;8.10;;
62927;SDS011;51070;52.236;-0.892;2022-12-01T08:24:23;19.80;;;8.50;;
62927;SDS011;51070;52.236;-0.892;2022-12-01T08:26:49;15.70;;;7.90;;
62927;SDS011;51070;52.236;-0.892;2022-12-01T08:29:14;15.40;;;7.30;;
62927;SDS011;51070;52.236;-0.892;2022-12-01T08:31:40;13.50;;;7.30;;
62927;SDS011;51070;52.236;-0.892;2022-12-01T08:34:05;12.80;;;7.10;;
62927;SDS011;51070;52.236;-0.892;2022-12-01T08:36:32;16.60;;;8.10;;
62927;SDS011;51070;52.236;-0.892;2022-12-01T08:38:58;13.70;;;7.00;;
62927;SDS011;51070;52.236;-0.892;2022-12-01T08:41:24;16.10;;;7.70;;
62927;SDS011;51070;52.236;-0.892;2022-12-01T08:43:50;14.90;;;8.50;;
62927;SDS011;51070;52.236;-0.892;2022-12-01T08:46:16;20.20;;;8.10;;
62927;SDS011;51070;52.236;-0.892;2022-12-01T08:48:41;16.50;;;8.60;;
62927;SDS011;51070;52.236;-0.892;2022-12-01T08:51:11;15.60;;;9.20;;
62927;SDS011;51070;52.236;-0.892;2022-12-01T08:53:40;17.90;;;8.50;;
62927;SDS011;51070;52.236;-0.892;2022-12-01T08:58:38;18.10;;;8.80;;
62927;SDS011;51070;52.236;-0.892;2022-12-01T09:01:09;18.10;;;10.00;;
62927;SDS011;51070;52.236;-0.892;2022-12-01T09:03:36;18.10;;;9.30;;
62927;SDS011;51070;52.236;-0.892;2022-12-01T09:06:03;21.60;;;10.20;;
62927;SDS011;51070;52.236;-0.892;2022-12-01T09:08:37;18.50;;;9.70;;
62927;SDS011;51070;52.236;-0.892;2022-12-01T09:11:07;18.40;;;8.50;;
62927;SDS011;51070;52.236;-0.892;2022-12-01T09:13:37;22.90;;;9.70;;
62927;SDS011;51070;52.236;-0.892;2022-12-01T09:16:04;21.30;;;10.20;;
62927;SDS011;51070;52.236;-0.892;2022-12-01T09:18:32;24.00;;;10.20;;
62927;SDS011;51070;52.236;-0.892;2022-12-01T09:20:58;22.50;;;10.40;;
62927;SDS011;51070;52.236;-0.892;2022-12-01T09:23:24;24.70;;;10.10;;
62927;SDS011;51070;52.236;-0.892;2022-12-01T09:25:50;27.50;;;10.50;;
62927;SDS011;51070;52.236;-0.892;2022-12-01T09:28:17;26.20;;;10.80;;
62927;SDS011;51070;52.236;-0.892;2022-12-01T09:30:44;28.60;;;11.20;;
62927;SDS011;51070;52.236;-0.892;2022-12-01T09:33:10;25.00;;;13.00;;
62927;SDS011;51070;52.236;-0.892;2022-12-01T09:35:36;26.40;;;10.90;;
62927;SDS011;51070;52.236;-0.892;2022-12-01T09:38:01;26.00;;;11.00;;
62927;SDS011;51070;52.236;-0.892;2022-12-01T09:40:33;24.70;;;10.10;;
62927;SDS011;51070;52.236;-0.892;2022-12-01T09:43:03;25.40;;;10.40;;
62927;SDS011;51070;52.236;-0.892;2022-12-01T09:45:35;30.80;;;11.90;;
62927;SDS011;51070;52.236;-0.892;2022-12-01T09:48:06;29.20;;;11.30;;
62927;SDS011;51070;52.236;-0.892;2022-12-01T09:50:46;22.90;;;11.20;;
62927;SDS011;51070;52.236;-0.892;2022-12-01T09:53:13;26.00;;;12.10;;
62927;SDS011;51070;52.236;-0.892;2022-12-01T09:55:44;24.20;;;11.50;;
62927;SDS011;51070;52.236;-0.892;2022-12-01T09:58:14;26.50;;;12.20;;
62927;SDS011;51070;52.236;-0.892;2022-12-01T10:00:44;25.40;;;12.90;;
62927;SDS011;51070;52.236;-0.892;2022-12-01T10:05:53;27.00;;;11.60;;
62927;SDS011;51070;52.236;-0.892;2022-12-01T10:08:23;30.80;;;13.10;;
62927;SDS011;51070;52.236;-0.892;2022-12-01T10:10:53;32.00;;;13.20;;
62927;SDS011;51070;52.236;-0.892;2022-12-01T10:13:25;29.80;;;13.20;;
62927;SDS011;51070;52.236;-0.892;2022-12-01T10:18:24;24.40;;;12.10;;
62927;SDS011;51070;52.236;-0.892;2022-12-01T10:21:14;23.30;;;10.20;;
62927;SDS011;51070;52.236;-0.892;2022-12-01T10:26:25;26.40;;;12.10;;
62927;SDS011;51070;52.236;-0.892;2022-12-01T10:31:41;16.80;;;7.90;;
62927;SDS011;51070;52.236;-0.892;2022-12-01T10:34:24;20.60;;;8.60;;
62927;SDS011;51070;52.236;-0.892;2022-12-01T10:36:52;23.40;;;9.40;;
62927;SDS011;51070;52.236;-0.892;2022-12-01T10:39:27;19.90;;;10.10;;
62927;SDS011;51070;52.236;-0.892;2022-12-01T10:42:03;17.00;;;8.20;;
62927;SDS011;51070;52.236;-0.892;2022-12-01T10:44:50;17.70;;;7.00;;
62927;SDS011;51070;52.236;-0.892;2022-12-01T10:47:23;18.40;;;8.80;;
62927;SDS011;51070;52.236;-0.892;2022-12-01T10:49:49;19.10;;;9.90;;
62927;SDS011;51070;52.236;-0.892;2022-12-01T10:55:02;22.60;;;9.70;;
62927;SDS011;51070;52.236;-0.892;2022-12-01T10:57:32;12.50;;;6.40;;
62927;SDS011;51070;52.236;-0.892;2022-12-01T11:00:04;22.20;;;11.30;;
62927;SDS011;51070;52.236;-0.892;2022-12-01T11:02:33;24.70;;;10.70;;
62927;SDS011;51070;52.236;-0.892;2022-12-01T11:05:00;27.80;;;11.80;;
62927;SDS011;51070;52.236;-0.892;2022-12-01T11:07:31;21.80;;;10.40;;
62927;SDS011;51070;52.236;-0.892;2022-12-01T11:12:31;27.80;;;11.90;;
62927;SDS011;51070;52.236;-0.892;2022-12-01T11:14:57;26.80;;;12.10;;
62927;SDS011;51070;52.236;-0.892;2022-12-01T11:19:54;25.90;;;10.30;;
62927;SDS011;51070;52.236;-0.892;2022-12-01T11:22:29;23.30;;;11.00;;
62927;SDS011;51070;52.236;-0.892;2022-12-01T11:25:08;25.40;;;11.50;;
62927;SDS011;51070;52.236;-0.892;2022-12-01T11:30:22;21.60;;;9.30;;
62927;SDS011;51070;52.236;-0.892;2022-12-01T11:32:50;24.20;;;10.80;;
62927;SDS011;51070;52.236;-0.892;2022-12-01T11:35:22;14.90;;;7.40;;
62927;SDS011;51070;52.236;-0.892;2022-12-01T11:37:51;27.70;;;11.20;;
62927;SDS011;51070;52.236;-0.892;2022-12-01T11:40:25;21.70;;;9.90;;
62927;SDS011;51070;52.236;-0.892;2022-12-01T11:42:54;24.10;;;10.70;;
62927;SDS011;51070;52.236;-0.892;2022-12-01T11:45:24;26.70;;;11.90;;
62927;SDS011;51070;52.236;-0.892;2022-12-01T11:48:06;22.70;;;10.40;;
62927;SDS011;51070;52.236;-0.892;2022-12-01T11:50:35;27.30;;;12.20;;
62927;SDS011;51070;52.236;-0.892;2022-12-01T11:53:02;21.80;;;10.90;;
62927;SDS011;51070;52.236;-0.892;2022-12-01T11:55:30;23.30;;;11.10;;
62927;SDS011;51070;52.236;-0.892;2022-12-01T11:58:00;22.10;;;11.10;;
62927;SDS011;51070;52.236;-0.892;2022-12-01T12:00:29;22.60;;;11.70;;
62927;SDS011;51070;52.236;-0.892;2022-12-01T12:03:16;23.60;;;10.40;;
62927;SDS011;51070;52.236;-0.892;2022-12-01T12:11:19;25.40;;;11.90;;
62927;SDS011;51070;52.236;-0.892;2022-12-01T12:19:29;23.40;;;11.30;;
62927;SDS011;51070;52.236;-0.892;2022-12-01T12:22:25;26.50;;;10.90;;
62927;SDS011;51070;52.236;-0.892;2022-12-01T12:30:56;20.90;;;10.60;;
62927;SDS011;51070;52.236;-0.892;2022-12-01T12:36:37;25.80;;;12.50;;
62927;SDS011;51070;52.236;-0.892;2022-12-01T12:41:51;22.50;;;10.20;;
62927;SDS011;51070;52.236;-0.892;2022-12-01T12:52:34;22.50;;;10.00;;
62927;SDS011;51070;52.236;-0.892;2022-12-01T12:57:47;25.80;;;10.30;;
62927;SDS011;51070;52.236;-0.892;2022-12-01T13:00:23;19.50;;;10.40;;
62927;SDS011;51070;52.236;-0.892;2022-12-01T13:02:52;22.00;;;10.80;;
62927;SDS011;51070;52.236;-0.892;2022-12-01T13:05:56;24.60;;;11.00;;
62927;SDS011;51070;52.236;-0.892;2022-12-01T13:08:33;30.30;;;12.30;;
62927;SDS011;51070;52.236;-0.892;2022-12-01T13:11:09;18.30;;;9.70;;
62927;SDS011;51070;52.236;-0.892;2022-12-01T13:13:50;24.00;;;9.80;;
62927;SDS011;51070;52.236;-0.892;2022-12-01T13:16:20;24.30;;;11.00;;
62927;SDS011;51070;52.236;-0.892;2022-12-01T13:18:54;23.60;;;10.30;;
62927;SDS011;51070;52.236;-0.892;2022-12-01T13:21:28;22.50;;;10.50;;
62927;SDS011;51070;52.236;-0.892;2022-12-01T13:23:58;23.60;;;10.70;;
62927;SDS011;51070;52.236;-0.892;2022-12-01T13:26:25;20.60;;;11.40;;
62927;SDS011;51070;52.236;-0.892;2022-12-01T13:28:52;29.10;;;13.50;;
62927;SDS011;51070;52.236;-0.892;2022-12-01T13:31:20;29.30;;;13.90;;
62927;SDS011;51070;52.236;-0.892;2022-12-01T13:36:26;22.90;;;10.60;;
62927;SDS011;51070;52.236;-0.892;2022-12-01T13:39:03;25.80;;;12.60;;
62927;SDS011;51070;52.236;-0.892;2022-12-01T13:41:37;24.00;;;10.70;;
62927;SDS011;51070;52.236;-0.892;2022-12-01T13:44:18;21.80;;;11.00;;
62927;SDS011;51070;52.236;-0.892;2022-12-01T13:57:29;21.10;;;10.60;;
62927;SDS011;51070;52.236;-0.892;2022-12-01T14:02:22;25.50;;;11.20;;
62927;SDS011;51070;52.236;-0.892;2022-12-01T14:04:48;22.20;;;10.70;;
62927;SDS011;51070;52.236;-0.892;2022-12-01T14:07:21;28.30;;;12.20;;
62927;SDS011;51070;52.236;-0.892;2022-12-01T14:09:52;26.40;;;11.50;;
62927;SDS011;51070;52.236;-0.892;2022-12-01T14:12:23;22.50;;;11.80;;
62927;SDS011;51070;52.236;-0.892;2022-12-01T14:14:58;27.10;;;12.00;;
62927;SDS011;51070;52.236;-0.892;2022-12-01T14:17:36;23.30;;;11.50;;
62927;SDS011;51070;52.236;-0.892;2022-12-01T14:20:23;28.20;;;13.40;;
62927;SDS011;51070;52.236;-0.892;2022-12-01T14:25:55;24.10;;;11.70;;
62927;SDS011;51070;52.236;-0.892;2022-12-01T14:39:13;17.90;;;9.70;;
62927;SDS011;51070;52.236;-0.892;2022-12-01T14:41:55;19.90;;;9.50;;
62927;SDS011;51070;52.236;-0.892;2022-12-01T14:46:57;22.90;;;10.90;;
62927;SDS011;51070;52.236;-0.892;2022-12-01T14:49:28;19.90;;;8.40;;
62927;SDS011;51070;52.236;-0.892;2022-12-01T14:51:59;19.70;;;8.90;;
62927;SDS011;51070;52.236;-0.892;2022-12-01T14:54:31;18.60;;;9.80;;
62927;SDS011;51070;52.236;-0.892;2022-12-01T14:57:03;17.20;;;8.50;;
62927;SDS011;51070;52.236;-0.892;2022-12-01T14:59:29;20.10;;;9.20;;
62927;SDS011;51070;52.236;-0.892;2022-12-01T15:01:55;18.30;;;9.30;;
62927;SDS011;51070;52.236;-0.892;2022-12-01T15:04:28;17.60;;;9.90;;
62927;SDS011;51070;52.236;-0.892;2022-12-01T15:06:54;17.50;;;8.70;;
62927;SDS011;51070;52.236;-0.892;2022-12-01T15:09:21;15.70;;;8.20;;
62927;SDS011;51070;52.236;-0.892;2022-12-01T15:11:50;19.80;;;9.40;;
62927;SDS011;51070;52.236;-0.892;2022-12-01T15:16:51;16.50;;;7.70;;
62927;SDS011;51070;52.236;-0.892;2022-12-01T15:21:54;17.20;;;7.90;;
62927;SDS011;51070;52.236;-0.892;2022-12-01T15:24:22;17.80;;;8.40;;
62927;SDS011;51070;52.236;-0.892;2022-12-01T15:26:54;14.80;;;6.90;;
62927;SDS011;51070;52.236;-0.892;2022-12-01T15:29:40;11.90;;;6.60;;
62927;SDS011;51070;52.236;-0.892;2022-12-01T15:32:10;14.20;;;6.30;;
62927;SDS011;51070;52.236;-0.892;2022-12-01T15:34:43;12.10;;;6.60;;
62927;SDS011;51070;52.236;-0.892;2022-12-01T15:37:21;12.70;;;6.60;;
62927;SDS011;51070;52.236;-0.892;2022-12-01T15:42:23;9.70;;;5.70;;
62927;SDS011;51070;52.236;-0.892;2022-12-01T15:44:59;14.40;;;6.60;;
62927;SDS011;51070;52.236;-0.892;2022-12-01T15:47:46;10.70;;;5.90;;
62927;SDS011;51070;52.236;-0.892;2022-12-01T15:53:06;15.90;;;7.70;;
62927;SDS011;51070;52.236;-0.892;2022-12-01T15:55:45;14.10;;;7.10;;
62927;SDS011;51070;52.236;-0.892;2022-12-01T15:58:18;14.60;;;7.70;;
62927;SDS011;51070;52.236;-0.892;2022-12-01T16:01:07;11.00;;;6.40;;
62927;SDS011;51070;52.236;-0.892;2022-12-01T16:03:51;15.20;;;8.10;;
62927;SDS011;51070;52.236;-0.892;2022-12-01T16:06:21;13.30;;;7.60;;
62927;SDS011;51070;52.236;-0.892;2022-12-01T16:08:51;14.20;;;6.40;;
62927;SDS011;51070;52.236;-0.892;2022-12-01T16:11:20;14.30;;;6.70;;
62927;SDS011;51070;52.236;-0.892;2022-12-01T16:16:45;16.20;;;7.40;;
62927;SDS011;51070;52.236;-0.892;2022-12-01T16:21:46;11.80;;;7.00;;
62927;SDS011;51070;52.236;-0.892;2022-12-01T16:27:01;16.00;;;7.40;;
62927;SDS011;51070;52.236;-0.892;2022-12-01T16:29:27;13.00;;;6.30;;
62927;SDS011;51070;52.236;-0.892;2022-12-01T16:31:57;12.70;;;7.00;;
62927;SDS011;51070;52.236;-0.892;2022-12-01T16:34:35;12.00;;;6.30;;
62927;SDS011;51070;52.236;-0.892;2022-12-01T16:37:00;11.50;;;7.20;;
62927;SDS011;51070;52.236;-0.892;2022-12-01T16:39:26;11.60;;;6.70;;
62927;SDS011;51070;52.236;-0.892;2022-12-01T16:41:51;16.50;;;7.90;;
62927;SDS011;51070;52.236;-0.892;2022-12-01T16:44:18;16.70;;;9.90;;
62927;SDS011;51070;52.236;-0.892;2022-12-01T16:46:43;18.40;;;10.30;;
62927;SDS011;51070;52.236;-0.892;2022-12-01T16:49:08;20.50;;;9.10;;
62927;SDS011;51070;52.236;-0.892;2022-12-01T16:51:34;13.60;;;6.50;;
62927;SDS011;51070;52.236;-0.892;2022-12-01T16:54:01;18.00;;;8.50;;
62927;SDS011;51070;52.236;-0.892;2022-12-01T16:56:30;16.80;;;9.00;;
62927;SDS011;51070;52.236;-0.892;2022-12-01T16:58:56;14.90;;;7.70;;